Latest Weather Observations for Coonamble

IDN60801

Issued at 6:33 pm EST Monday 25 September 2023 (issued every 10 minutes, with the page automatically refreshed every 10 minutes)

About weather observations | Map of weather stations | Latest weather observations for NSW | Other Formats
Station Details ID: 051161 Name: COONAMBLE AIRPORT AWS Lat: -30.98 Lon: 148.38 Height: 181.3 m
Data from the previous 72 hours. | See also: Recent months at Coonamble
Date/Time
EST
Temp
°C
App
Temp
°C
Dew
Point
°C
Rel
Hum
%
Delta-T
°C
Wind Press
QNH
hPa
Press
MSL
hPa
Rain since
9am
mm
Dir  Spd
km/h
Gust
km/h
Spd
kts
Gust
kts
25/06:30pm 19.6 17.6 6.4 42 6.6 NNE 6 9 3 5 1020.2 1020.0 0.0
25/06:00pm 22.8 20.7 6.6 35 8.3 NNE 7 11 4 6 1020.0 1019.8 0.0
25/05:30pm 24.2 21.6 6.0 31 9.4 NE 9 11 5 6 1019.9 1019.7 0.0
25/05:00pm 25.5 24.2 6.2 29 10.0 S 2 6 1 3 1019.8 1019.6 0.0
25/04:30pm 25.6 24.4 6.3 29 10.1 NE 2 7 1 4 1019.7 1019.5 0.0
25/04:00pm 25.9 23.4 6.5 29 10.2 NNE 9 15 5 8 1019.6 1019.4 0.0
25/03:30pm 25.5 22.5 6.2 29 10.1 NNE 11 19 6 10 1019.7 1019.5 0.0
25/03:00pm 25.6 22.8 6.8 30 9.9 N 11 17 6 9 1019.9 1019.7 0.0
25/02:30pm 25.5 22.5 6.2 29 10.1 WNW 11 17 6 9 1020.2 1020.0 0.0
25/02:00pm 26.1 23.4 7.2 30 10.0 N 11 19 6 10 1020.7 1020.5 0.0
25/01:30pm 25.4 22.6 7.1 31 9.7 WNW 11 28 6 15 1021.0 1020.8 0.0
25/01:00pm 26.6 23.1 7.1 29 10.4 NNW 15 24 8 13 1021.5 1021.3 0.0
25/12:30pm 25.8 22.1 7.9 32 9.6 NNE 17 26 9 14 1022.1 1021.9 0.0
25/12:00pm 23.6 19.3 7.7 36 8.4 N 20 33 11 18 1022.7 1022.6 0.0
25/11:30am 24.8 20.7 8.7 36 8.7 N 20 32 11 17 1023.2 1023.0 0.0
25/11:00am 24.1 20.1 8.9 38 8.2 NNE 20 39 11 21 1023.6 1023.4 0.0
25/10:30am 22.2 17.4 8.7 42 7.2 N 24 32 13 17 1024.0 1023.8 0.0
25/10:00am 21.4 15.8 8.7 44 6.7 N 28 39 15 21 1024.5 1024.3 0.0
25/09:30am 20.8 15.2 8.8 46 6.4 NNE 28 39 15 21 1024.6 1024.4 0.0
25/09:00am 20.0 14.3 8.4 47 6.1 N 28 41 15 22 1024.6 1024.4 0.0
25/08:33am 19.4 13.8 8.7 50 5.6 N 28 46 15 25 1024.4 1024.2 0.0
25/08:30am 19.6 14.4 8.9 50 5.7 N 26 44 14 24 1024.4 1024.2 0.0
25/08:00am 18.9 13.0 9.1 53 5.2 NNE 30 44 16 24 1024.3 1024.1 0.0
25/07:49am 18.3 12.7 8.8 54 5.0 NNE 28 46 15 25 1024.3 1024.1 0.0
25/07:30am 17.6 12.8 8.7 56 4.6 NNE 24 33 13 18 1024.3 1024.1 0.0
25/07:00am 15.1 10.3 7.2 59 3.9 NE 22 32 12 17 1023.8 1023.6 0.0
25/06:30am 12.5 9.0 5.4 62 3.3 ENE 13 20 7 11 1023.6 1023.4 0.0
25/06:00am 11.3 7.5 3.8 60 3.3 ENE 13 19 7 10 1022.9 1022.8 0.0
25/05:30am 11.3 6.6 3.3 58 3.5 ENE 17 20 9 11 1022.6 1022.4 0.0
25/05:00am 10.7 6.7 2.8 58 3.4 ENE 13 17 7 9 1022.5 1022.3 0.0
25/04:30am 11.3 6.9 2.6 55 3.8 ENE 15 17 8 9 1022.4 1022.2 0.0
25/04:00am 11.9 7.5 2.6 53 4.1 ENE 15 19 8 10 1022.1 1021.9 0.0
25/03:30am 12.0 7.5 2.2 51 4.3 ENE 15 19 8 10 1022.0 1021.8 0.0
25/03:00am 12.2 8.0 1.8 49 4.5 ENE 13 17 7 9 1022.1 1021.9 0.0
25/02:30am 12.0 7.5 1.9 50 4.4 ENE 15 19 8 10 1022.0 1021.8 0.0
25/02:00am 12.0 7.4 1.6 49 4.4 ENE 15 17 8 9 1021.9 1021.7 0.0
25/01:30am 12.6 8.4 1.9 48 4.7 E 13 15 7 8 1022.0 1021.8 0.0
25/01:00am 12.7 8.5 1.7 47 4.7 E 13 15 7 8 1022.1 1021.9 0.0
25/12:30am 13.0 8.5 2.3 48 4.7 E 15 17 8 9 1022.2 1022.0 0.0
25/12:00am 12.7 9.0 2.3 49 4.5 E 11 15 6 8 1022.1 1021.9 0.0
 
Date/Time
EST
Temp
°C
App
Temp
°C
Dew
Point
°C
Rel
Hum
%
Delta-T
°C
Wind Press
QNH
hPa
Press
MSL
hPa
Rain since
9am
mm
Dir  Spd
km/h
Gust
km/h
Spd
kts
Gust
kts
24/11:30pm 12.5 9.4 3.5 54 4.1 E 9 11 5 6 1022.2 1022.0 0.0
24/11:00pm 11.5 8.1 1.7 51 4.2 ENE 9 11 5 6 1022.2 1022.0 0.0
24/10:30pm 13.6 9.5 2.2 46 5.0 E 13 15 7 8 1022.3 1022.1 0.0
24/10:00pm 13.9 10.2 2.5 46 5.1 E 11 15 6 8 1022.4 1022.2 0.0
24/09:30pm 13.8 11.2 4.1 52 4.5 SE 7 11 4 6 1022.3 1022.1 0.0
24/09:00pm 14.8 12.6 5.1 52 4.6 SE 6 6 3 3 1022.3 1022.1 0.0
24/08:30pm 14.3 12.0 4.6 52 4.5 SE 6 7 3 4 1022.2 1022.0 0.0
24/08:00pm 15.9 14.5 3.4 43 5.8 CALM 0 0 0 0 1022.1 1021.9 0.0
24/07:30pm 16.2 14.0 3.3 42 6.0 NNW 4 7 2 4 1021.9 1021.7 0.0
24/07:00pm 17.7 16.3 3.6 39 6.6 CALM 0 0 0 0 1021.7 1021.5 0.0
24/06:30pm 19.5 17.4 4.0 36 7.5 NE 4 6 2 3 1021.3 1021.1 0.0
24/06:00pm 22.9 20.2 3.9 29 9.3 NNE 7 9 4 5 1021.2 1021.0 0.0
24/05:30pm 24.4 21.3 3.7 26 10.2 NE 9 13 5 7 1021.0 1020.8 0.0
24/05:00pm 24.9 21.5 4.1 26 10.4 NNE 11 17 6 9 1020.9 1020.7 0.0
24/04:30pm 25.5 22.9 4.0 25 10.8 ESE 7 13 4 7 1020.9 1020.7 0.0
24/04:00pm 25.6 22.6 4.1 25 10.8 ENE 9 19 5 10 1020.9 1020.7 0.0
24/03:30pm 25.8 23.4 4.3 25 10.9 ENE 6 17 3 9 1021.1 1020.9 0.0
24/03:00pm 26.2 22.9 4.6 25 11.0 NNE 11 22 6 12 1021.2 1021.0 0.0
24/02:30pm 25.9 23.0 4.9 26 10.7 NE 9 20 5 11 1021.6 1021.4 0.0
24/02:00pm 25.2 22.0 4.9 27 10.3 NE 11 19 6 10 1022.1 1021.9 0.0
24/01:30pm 24.5 20.6 5.3 29 9.8 NNE 15 28 8 15 1022.5 1022.3 0.0
24/01:00pm 24.7 20.6 6.0 30 9.6 NNW 17 24 9 13 1023.0 1022.9 0.0
24/12:30pm 23.8 20.4 5.7 31 9.3 NE 13 24 7 13 1023.7 1023.5 0.0
24/12:00pm 23.2 19.0 5.6 32 8.9 N 17 32 9 17 1024.4 1024.2 0.0
24/11:30am 23.0 18.5 5.9 33 8.7 NNE 19 28 10 15 1025.0 1024.8 0.0
24/11:00am 22.2 17.5 6.0 35 8.2 NNE 20 32 11 17 1025.4 1025.2 0.0
24/10:30am 21.5 16.4 5.8 36 7.9 NNE 22 35 12 19 1025.9 1025.7 0.0
24/10:00am 20.0 14.8 5.6 39 7.1 NNE 22 32 12 17 1026.3 1026.1 0.0
24/09:30am 19.6 13.4 6.0 41 6.8 NNE 28 37 15 20 1026.8 1026.6 0.0
24/09:00am 19.1 14.1 6.6 44 6.3 NNE 22 32 12 17 1026.9 1026.7 0.0
24/08:30am 17.8 12.4 6.3 47 5.7 NNE 24 37 13 20 1026.9 1026.7 0.0
24/08:00am 16.8 12.2 6.3 50 5.2 NE 20 26 11 14 1026.6 1026.4 0.0
24/07:30am 15.3 11.2 6.3 55 4.4 NE 17 22 9 12 1026.4 1026.2 0.0
24/07:00am 13.3 9.5 5.7 60 3.6 ENE 15 22 8 12 1026.2 1026.0 0.0
24/06:30am 11.0 7.4 5.1 67 2.7 ENE 13 19 7 10 1025.9 1025.7 0.0
24/06:00am 10.1 6.4 4.5 68 2.5 ENE 13 17 7 9 1025.6 1025.4 0.0
24/05:30am 10.7 7.1 4.8 67 2.7 E 13 15 7 8 1025.3 1025.1 0.0
24/05:00am 10.7 7.0 4.6 66 2.8 ENE 13 17 7 9 1024.8 1024.6 0.0
24/04:30am 10.9 7.6 4.6 65 2.9 E 11 13 6 7 1024.6 1024.4 0.0
24/04:00am 11.3 8.3 4.3 62 3.2 ENE 9 13 5 7 1024.3 1024.1 0.0
24/03:30am 12.2 8.5 4.4 59 3.6 NE 13 20 7 11 1024.0 1023.8 0.0
24/03:00am 13.2 9.1 4.4 55 4.0 ENE 15 19 8 10 1024.1 1023.9 0.0
24/02:30am 14.0 9.9 4.6 53 4.4 ENE 15 24 8 13 1024.0 1023.8 0.0
24/02:00am 14.3 9.9 4.9 53 4.4 ENE 17 24 9 13 1024.0 1023.8 0.0
24/01:30am 12.1 8.5 2.8 53 4.1 E 11 15 6 8 1024.0 1023.8 0.0
24/01:00am 11.9 8.5 1.8 50 4.3 E 9 13 5 7 1024.0 1023.8 0.0
24/12:30am 13.1 9.4 2.1 47 4.8 ESE 11 15 6 8 1024.2 1024.0 0.0
24/12:00am 13.2 9.6 0.9 43 5.2 E 9 13 5 7 1024.3 1024.1 0.0
 
Date/Time
EST
Temp
°C
App
Temp
°C
Dew
Point
°C
Rel
Hum
%
Delta-T
°C
Wind Press
QNH
hPa
Press
MSL
hPa
Rain since
9am
mm
Dir  Spd
km/h
Gust
km/h
Spd
kts
Gust
kts
23/11:30pm 13.9 10.3 0.5 40 5.7 E 9 13 5 7 1024.4 1024.2 0.0
23/11:00pm 14.6 10.9 0.1 37 6.1 ENE 9 13 5 7 1024.3 1024.1 0.0
23/10:30pm 15.1 10.7 0.2 36 6.4 ENE 13 17 7 9 1024.3 1024.1 0.0
23/10:00pm 13.7 10.9 2.9 48 4.8 E 7 9 4 5 1024.3 1024.1 0.0
23/09:30pm 14.6 11.3 2.5 44 5.4 SE 9 11 5 6 1024.1 1023.9 0.0
23/09:00pm 16.7 13.3 2.0 37 6.6 SE 9 13 5 7 1024.1 1023.9 0.0
23/08:30pm 18.6 14.2 2.9 35 7.3 SSE 15 20 8 11 1023.8 1023.6 0.0
23/08:00pm 18.4 13.9 2.3 34 7.4 SSE 15 17 8 9 1023.6 1023.4 0.0
23/07:30pm 18.6 14.2 2.9 35 7.3 SSE 15 17 8 9 1023.4 1023.2 0.0
23/07:00pm 18.6 14.6 2.9 35 7.3 S 13 13 7 7 1023.3 1023.1 0.0
23/06:30pm 19.4 15.8 2.7 33 7.8 S 11 13 6 7 1023.0 1022.9 0.0
23/06:00pm 21.6 17.6 2.8 29 8.9 S 13 17 7 9 1022.7 1022.6 0.0
23/05:30pm 23.5 19.6 3.4 27 9.8 SSE 13 17 7 9 1022.4 1022.2 0.0
23/05:00pm 24.4 20.2 3.7 26 10.2 SSE 15 22 8 12 1022.0 1021.8 0.0
23/04:30pm 25.0 21.0 3.0 24 10.8 SE 13 20 7 11 1022.0 1021.8 0.0
23/04:00pm 25.2 22.6 3.2 24 10.8 ENE 6 13 3 7 1021.9 1021.7 0.0
23/03:30pm 25.1 21.5 3.1 24 10.8 ESE 11 26 6 14 1022.1 1021.9 0.0
23/03:00pm 24.7 20.8 3.4 25 10.5 E 13 20 7 11 1022.3 1022.1 0.0
23/02:30pm 25.1 22.0 3.7 25 10.6 SE 9 17 5 9 1022.7 1022.6 0.0
23/02:00pm 24.2 20.7 3.5 26 10.1 S 11 20 6 11 1023.4 1023.2 0.0
23/01:30pm 24.4 21.7 3.7 26 10.2 SW 7 19 4 10 1023.8 1023.6 0.0
23/01:00pm 24.3 20.5 4.1 27 10.0 NE 13 22 7 12 1024.4 1024.2 0.0
23/12:30pm 23.4 20.4 3.9 28 9.6 E 9 17 5 9 1024.9 1024.7 0.0
23/12:00pm 22.4 18.6 4.0 30 9.0 E 13 22 7 12 1025.4 1025.2 0.0
23/11:30am 22.3 18.5 3.9 30 9.0 NE 13 22 7 12 1026.1 1025.9 0.0
23/11:00am 22.0 17.8 3.6 30 8.9 ENE 15 22 8 12 1026.5 1026.3 0.0
23/10:30am 20.8 16.5 3.1 31 8.4 NE 15 22 8 12 1026.8 1026.6 0.0
23/10:00am 19.7 14.4 3.0 33 7.8 NE 20 28 11 15 1027.0 1026.8 0.0
23/09:30am 19.2 13.6 3.4 35 7.5 NE 22 35 12 19 1027.3 1027.1 0.0
23/09:00am 17.9 11.5 3.4 38 6.8 ENE 26 35 14 19 1027.4 1027.3 0.0
23/08:30am 16.4 9.7 3.5 42 6.0 ENE 28 39 15 21 1027.4 1027.3 0.0
23/08:00am 15.2 8.5 3.7 46 5.3 ENE 28 39 15 21 1027.2 1027.0 0.0
23/07:30am 13.9 6.8 3.4 49 4.8 ENE 30 39 16 21 1027.0 1026.8 0.0
23/07:00am 12.5 7.5 3.5 54 4.0 ENE 19 28 10 15 1026.9 1026.7 0.0
23/06:30am 10.8 6.5 3.1 59 3.4 ENE 15 22 8 12 1026.5 1026.3 0.0
23/06:00am 10.3 5.9 2.9 60 3.2 ENE 15 20 8 11 1026.3 1026.1 0.0
23/05:30am 10.2 6.2 3.0 61 3.1 E 13 17 7 9 1025.8 1025.6 0.0
23/05:00am 10.6 6.7 3.2 60 3.2 E 13 19 7 10 1025.5 1025.3 0.0
23/04:30am 10.9 6.6 3.2 59 3.4 E 15 19 8 10 1025.1 1024.9 0.0
23/04:00am 11.6 7.3 3.4 57 3.6 E 15 20 8 11 1025.0 1024.8 0.0
23/03:30am 11.9 7.2 3.4 56 3.8 E 17 22 9 12 1024.8 1024.6 0.0
23/03:00am 12.2 7.6 3.7 56 3.8 E 17 22 9 12 1024.6 1024.4 0.0
23/02:30am 10.6 6.7 3.2 60 3.3 E 13 17 7 9 1024.8 1024.6 0.0
23/02:00am 9.0 6.1 2.8 65 2.6 ENE 7 9 4 5 1024.9 1024.7 0.0
23/01:30am 9.8 6.1 2.6 61 3.1 SE 11 13 6 7 1024.8 1024.6 0.0
23/01:00am 10.8 7.5 2.6 57 3.5 SE 9 13 5 7 1025.0 1024.8 0.0
23/12:30am 11.5 7.8 2.5 54 3.9 SE 11 13 6 7 1025.0 1024.8 0.0
23/12:00am 12.2 8.9 2.6 52 4.2 ESE 9 13 5 7 1024.9 1024.7 0.0
 
Date/Time
EST
Temp
°C
App
Temp
°C
Dew
Point
°C
Rel
Hum
%
Delta-T
°C
Wind Press
QNH
hPa
Press
MSL
hPa
Rain since
9am
mm
Dir  Spd
km/h
Gust
km/h
Spd
kts
Gust
kts
22/11:30pm 12.4 8.7 2.6 51 4.3 SE 11 13 6 7 1025.1 1024.9 0.0
22/11:00pm 13.4 9.4 2.9 49 4.7 SE 13 17 7 9 1025.0 1024.8 0.0
22/10:30pm 13.1 9.4 2.6 49 4.7 SE 11 15 6 8 1025.0 1024.8 0.0
22/10:00pm 13.8 10.2 3.0 48 4.8 ESE 11 15 6 8 1025.0 1024.8 0.0
22/09:30pm 14.4 10.8 2.9 46 5.2 ESE 11 15 6 8 1024.9 1024.7 0.0
22/09:00pm 15.3 11.3 2.8 43 5.6 ESE 13 17 7 9 1024.7 1024.5 0.0
22/08:30pm 16.1 12.1 2.9 41 6.0 SSE 13 19 7 10 1024.5 1024.3 0.0
22/08:00pm 17.0 12.6 2.6 38 6.6 SE 15 19 8 10 1024.2 1024.0 0.0
22/07:30pm 18.3 13.6 3.0 36 7.1 SE 17 20 9 11 1023.6 1023.4 0.0
22/07:00pm 19.7 15.0 3.0 33 7.9 SSE 17 22 9 12 1023.2 1023.0 0.0

Other formats

Comma delimited format used in spreadsheet applications
http://www.bom.gov.au/fwo/IDN60801/IDN60801.95718.axf

JavaScript Object Notation format (JSON) in row-major order
http://www.bom.gov.au/fwo/IDN60801/IDN60801.95718.json

Data quality

Most of these data are generated automatically and are frequently updated. Quality checks on data are not normally performed. It is possible for incorrect values to appear. Refer to information at About Latest Weather Observations and please check the disclaimer before using these data.